createdAt,value
2019-05-22T00:27:16.911Z,40.73
2019-05-22T00:29:46.904Z,40.80
2019-05-22T00:32:17.659Z,42.90
2019-05-22T00:34:49.037Z,43.30
2019-05-22T00:37:18.763Z,43.50
2019-05-22T00:39:48.379Z,43.40
2019-05-22T00:42:18.871Z,43.43
2019-05-22T00:44:48.723Z,43.03
2019-05-22T00:47:19.721Z,43.97
2019-05-22T00:49:52.219Z,46.10
2019-05-22T00:52:44.837Z,45.37
2019-05-22T00:55:24.941Z,44.87
2019-05-22T00:57:56.909Z,46.83
2019-05-22T01:00:28.275Z,48.93
2019-05-22T01:02:59.265Z,44.53
2019-05-22T01:05:29.521Z,46.43
2019-05-22T01:08:00.472Z,44.90
2019-05-22T01:10:30.552Z,46.70
2019-05-22T01:13:00.728Z,47.97
2019-05-22T01:15:31.977Z,48.50
2019-05-22T01:18:06.263Z,48.37
2019-05-22T01:20:37.542Z,46.60
2019-05-22T01:23:08.722Z,47.17
2019-05-22T01:25:38.601Z,51.43
2019-05-22T01:28:09.024Z,48.73
2019-05-22T01:30:40.097Z,48.03
2019-05-22T01:33:14.295Z,46.83
2019-05-22T01:36:04.052Z,48.53
2019-05-22T01:38:36.297Z,48.57
2019-05-22T01:41:10.378Z,49.27
2019-05-22T01:43:39.787Z,52.63
2019-05-22T01:46:09.709Z,50.70
2019-05-22T01:48:43.008Z,49.37
2019-05-22T01:51:14.074Z,50.73
2019-05-22T01:53:43.489Z,48.27
2019-05-22T01:56:15.774Z,49.30
2019-05-22T01:58:45.319Z,50.33
2019-05-22T02:01:23.580Z,49.37
2019-05-22T02:03:54.618Z,50.30
2019-05-22T02:06:26.631Z,49.63
2019-05-22T02:09:20.359Z,48.57
2019-05-22T02:11:54.252Z,50.13
2019-05-22T02:14:25.384Z,50.47
